Morse, Minnesota
Current Conditions -  °F | °C
As of 4:13 PM on Thursday 18 Dec 2014 (Local Time) from KFOZ Reporting Station
Overcast Overcast  
Wind Chill: 15°   Ceiling: 1100
Heat Index: 21°   Visibility: 10mi
Dew Point: 18°   Wind: 5mph
Humidity: 86%   Direction: 180°S
Pressure: 30.22"   Gusts: NA
Location:  47.4603°N, 94.029°W
Report Text: KFOZ 182213Z AUTO 18004KT 10SM OVC011 M06/M08 A3022 RMK AO2
Loading
Personal Weather Stations






























Interactive Weather Map New forecast layout! Learn more

10-Day Weather Forecast

Advertisements
Track Severe Weather on mobile